Time;durP1;ratioP1;P1;durP2;ratioP2;P2;SDS_P1;SDS_P2;PMS_P1;PMS_P2;Temp;Humidity;BMP_temperature;BMP_pressure;BME280_temperature;BME280_humidity;BME280_pressure;Samples;Min_cycle;Max_cycle;Signal;HPM_P1;HPM_P2
2024/04/18 00:01:28;;;;;;;20.27;13.63;;;;;;;;;;5382466;26;20012;-60
2024/04/18 00:03:53;;;;;;;20.13;12.88;;;;;;;;;;5351627;26;19996;-60
2024/04/18 00:06:19;;;;;;;20.65;13.07;;;;;;;;;;5382141;26;19997;-60
2024/04/18 00:08:44;;;;;;;19.20;12.90;;;;;;;;;;5382173;26;20072;-60
2024/04/18 00:11:25;;;;;;;;;;;;;;;;;;5382598;26;20008;-59
2024/04/18 00:13:50;;;;;;;16.63;11.77;;;;;;;;;;5381838;26;19932;-60
2024/04/18 00:16:34;;;;;;;18.40;12.85;;;;;;;;;;5382173;26;20011;-59
2024/04/18 00:19:14;;;;;;;16.40;12.27;;;;;;;;;;5370577;26;20334;-59
2024/04/18 00:21:54;;;;;;;;;;;;;;;;;;5382272;26;20074;-59
2024/04/18 00:24:24;;;;;;;14.68;10.95;;;;;;;;;;5382005;26;20267;-59
2024/04/18 00:26:49;;;;;;;16.17;12.02;;;;;;;;;;5381599;26;19996;-59
2024/04/18 00:29:15;;;;;;;17.98;11.85;;;;;;;;;;5381515;26;20438;-59
2024/04/18 00:31:41;;;;;;;18.70;12.18;;;;;;;;;;5381554;26;20603;-59
2024/04/18 00:34:06;;;;;;;16.20;11.80;;;;;;;;;;5381476;26;20011;-59
2024/04/18 00:36:43;;;;;;;18.17;12.27;;;;;;;;;;5353548;26;20073;-59
2024/04/18 00:39:21;;;;;;;15.55;12.13;;;;;;;;;;5383908;26;20323;-59
2024/04/18 00:41:57;;;;;;;14.52;11.77;;;;;;;;;;5385015;26;20397;-53
2024/04/18 00:44:32;;;;;;;15.85;12.10;;;;;;;;;;5385225;26;20347;-53
2024/04/18 00:47:13;;;;;;;18.88;12.30;;;;;;;;;;5384862;26;20010;-54
2024/04/18 00:49:39;;;;;;;17.25;11.90;;;;;;;;;;5385193;26;20069;-53
2024/04/18 00:52:04;;;;;;;17.85;12.85;;;;;;;;;;5385168;26;19996;-53
2024/04/18 00:54:30;;;;;;;16.92;12.93;;;;;;;;;;5385136;26;20065;-53
2024/04/18 00:56:58;;;;;;;17.20;12.68;;;;;;;;;;5384865;26;19996;-53
2024/04/18 00:59:27;;;;;;;17.10;12.73;;;;;;;;;;5384847;26;20012;-53
2024/04/18 01:02:25;;;;;;;15.90;12.23;;;;;;;;;;5363302;26;20001;-53
2024/04/18 01:05:10;;;;;;;15.73;12.15;;;;;;;;;;5384530;26;20446;-53
2024/04/18 01:07:40;;;;;;;17.55;12.57;;;;;;;;;;5384843;26;20008;-53
2024/04/18 01:10:19;;;;;;;15.88;11.98;;;;;;;;;;5384872;26;19992;-53
2024/04/18 01:12:54;;;;;;;15.30;11.85;;;;;;;;;;5384693;26;20006;-53
2024/04/18 01:15:39;;;;;;;15.70;11.52;;;;;;;;;;5384829;26;19997;-53
2024/04/18 01:18:04;;;;;;;16.10;12.07;;;;;;;;;;5384583;26;20007;-53
2024/04/18 01:20:30;;;;;;;17.05;11.68;;;;;;;;;;5353697;26;19992;-54
2024/04/18 01:22:56;;;;;;;15.70;11.07;;;;;;;;;;5384362;26;20007;-53
2024/04/18 01:25:40;;;;;;;15.75;11.40;;;;;;;;;;5384459;26;20003;-53
2024/04/18 01:28:05;;;;;;;14.57;11.15;;;;;;;;;;5354124;26;20059;-53
2024/04/18 01:30:31;;;;;;;16.33;11.57;;;;;;;;;;5384159;26;20004;-53
2024/04/18 01:33:09;;;;;;;13.10;11.07;;;;;;;;;;5384390;26;20330;-53
2024/04/18 01:35:35;;;;;;;12.77;10.60;;;;;;;;;;5353580;26;19996;-53
2024/04/18 01:38:00;;;;;;;13.43;10.25;;;;;;;;;;5384378;26;20016;-53
2024/04/18 01:40:45;;;;;;;13.50;10.77;;;;;;;;;;5384449;26;20059;-54
2024/04/18 01:43:29;;;;;;;12.95;10.68;;;;;;;;;;5384473;26;20070;-54
2024/04/18 01:46:17;;;;;;;13.23;10.32;;;;;;;;;;5383921;26;20000;-54
2024/04/18 01:48:57;;;;;;;13.40;10.68;;;;;;;;;;5383854;26;20000;-54
2024/04/18 01:51:43;;;;;;;15.43;11.18;;;;;;;;;;5383263;26;19992;-53
2024/04/18 01:54:26;;;;;;;13.23;10.75;;;;;;;;;;5384556;26;20069;-53
2024/04/18 01:56:56;;;;;;;14.13;10.35;;;;;;;;;;5384523;26;20469;-54
2024/04/18 01:59:21;;;;;;;11.55;10.13;;;;;;;;;;5384121;26;19996;-54
2024/04/18 02:01:47;;;;;;;13.35;10.20;;;;;;;;;;5384190;26;19996;-54
2024/04/18 02:04:12;;;;;;;14.38;10.95;;;;;;;;;;5384300;26;20010;-54
2024/04/18 02:06:37;;;;;;;14.05;10.90;;;;;;;;;;5384022;26;20515;-53
2024/04/18 02:09:21;;;;;;;14.95;10.40;;;;;;;;;;5383799;26;20007;-53
2024/04/18 02:11:49;;;;;;;12.38;9.75;;;;;;;;;;5384080;26;20000;-53
2024/04/18 02:14:34;;;;;;;11.70;9.82;;;;;;;;;;5383946;26;20000;-53
2024/04/18 02:17:00;;;;;;;12.00;9.55;;;;;;;;;;5383938;26;20000;-53
2024/04/18 02:19:26;;;;;;;12.40;10.02;;;;;;;;;;5383776;26;20430;-53
2024/04/18 02:22:17;;;;;;;12.18;9.90;;;;;;;;;;5383528;26;20008;-53
2024/04/18 02:25:02;;;;;;;13.05;10.45;;;;;;;;;;5383687;26;20007;-53
2024/04/18 02:27:27;;;;;;;12.93;9.52;;;;;;;;;;5352768;26;20036;-53
2024/04/18 02:29:53;;;;;;;13.23;9.95;;;;;;;;;;5383839;26;20442;-52
2024/04/18 02:32:36;;;;;;;12.55;10.35;;;;;;;;;;5383471;26;20074;-52
2024/04/18 02:35:02;;;;;;;13.15;10.43;;;;;;;;;;5383557;26;20004;-53
2024/04/18 02:37:28;;;;;;;12.93;10.88;;;;;;;;;;5383735;26;20012;-52
2024/04/18 02:39:54;;;;;;;13.70;10.52;;;;;;;;;;5352509;26;20066;-52
2024/04/18 02:42:22;;;;;;;13.30;9.80;;;;;;;;;;5383388;26;19996;-50
2024/04/18 02:45:00;;;;;;;13.05;10.60;;;;;;;;;;5383461;26;20007;-53
2024/04/18 02:47:27;;;;;;;13.02;10.25;;;;;;;;;;5383374;26;19996;-51
2024/04/18 02:50:06;;;;;;;13.07;10.52;;;;;;;;;;5383272;26;19996;-51
2024/04/18 02:52:31;;;;;;;12.70;10.00;;;;;;;;;;5326471;26;20007;-53
2024/04/18 02:54:57;;;;;;;13.68;10.23;;;;;;;;;;5348311;26;20001;-53
2024/04/18 02:57:23;;;;;;;12.73;10.25;;;;;;;;;;5348487;26;20015;-53
2024/04/18 02:59:49;;;;;;;15.75;10.73;;;;;;;;;;5348280;26;19997;-53
2024/04/18 03:02:21;;;;;;;15.45;10.95;;;;;;;;;;5346451;26;20020;-53
2024/04/18 03:04:47;;;;;;;12.45;10.63;;;;;;;;;;5348315;26;20009;-53
2024/04/18 03:07:12;;;;;;;13.07;10.68;;;;;;;;;;5348101;26;20402;-53
2024/04/18 03:09:46;;;;;;;17.92;11.70;;;;;;;;;;5348151;26;19997;-53
2024/04/18 03:12:24;;;;;;;14.85;11.35;;;;;;;;;;5347908;26;20395;-52
2024/04/18 03:14:50;;;;;;;17.02;11.68;;;;;;;;;;5348218;26;20012;-52
2024/04/18 03:17:35;;;;;;;15.35;11.27;;;;;;;;;;5347748;26;20041;-53
2024/04/18 03:20:00;;;;;;;20.55;13.48;;;;;;;;;;5347979;26;19993;-53
2024/04/18 03:22:26;;;;;;;18.98;13.38;;;;;;;;;;5348138;26;20071;-53
2024/04/18 03:24:58;;;;;;;18.58;12.98;;;;;;;;;;5347901;26;20009;-52
2024/04/18 03:27:29;;;;;;;18.40;13.45;;;;;;;;;;5348000;26;20357;-53
2024/04/18 03:29:55;;;;;;;19.55;13.30;;;;;;;;;;5347841;26;20034;-51
2024/04/18 03:32:36;;;;;;;20.55;13.80;;;;;;;;;;5320157;26;20000;-53
2024/04/18 03:35:02;;;;;;;20.13;13.57;;;;;;;;;;5347762;26;20042;-53
2024/04/18 03:37:27;;;;;;;21.27;13.82;;;;;;;;;;5347337;26;20371;-53
2024/04/18 03:39:53;;;;;;;21.35;13.55;;;;;;;;;;5317108;26;20000;-59
2024/04/18 03:42:18;;;;;;;20.75;13.75;;;;;;;;;;5347485;26;20008;-59
2024/04/18 03:44:53;;;;;;;22.45;14.15;;;;;;;;;;5347674;26;20011;-58
2024/04/18 03:47:18;;;;;;;21.45;14.32;;;;;;;;;;5347535;26;20398;-58
2024/04/18 03:50:02;;;;;;;22.92;14.55;;;;;;;;;;5346564;26;20528;-59
2024/04/18 03:52:37;;;;;;;20.90;14.70;;;;;;;;;;5371941;26;20342;-58
2024/04/18 03:55:21;;;;;;;22.40;14.57;;;;;;;;;;5379526;26;20445;-58
2024/04/18 03:57:49;;;;;;;23.02;13.77;;;;;;;;;;5379291;26;19996;-58
2024/04/18 04:00:15;;;;;;;20.00;13.32;;;;;;;;;;5348652;26;19992;-58
2024/04/18 04:02:40;;;;;;;22.88;15.15;;;;;;;;;;5379179;26;19992;-58
2024/04/18 04:05:06;;;;;;;21.10;13.60;;;;;;;;;;5379805;26;20008;-59
2024/04/18 04:07:31;;;;;;;21.40;13.85;;;;;;;;;;5382293;26;20011;-58
2024/04/18 04:09:57;;;;;;;22.42;13.65;;;;;;;;;;5382516;26;20449;-59
2024/04/18 04:12:22;;;;;;;20.35;13.40;;;;;;;;;;5382225;26;20334;-59
2024/04/18 04:15:06;;;;;;;20.02;14.18;;;;;;;;;;5385652;26;20003;-58
2024/04/18 04:17:32;;;;;;;21.50;14.38;;;;;;;;;;5385683;26;19997;-58
2024/04/18 04:20:07;;;;;;;20.23;13.52;;;;;;;;;;5386065;26;19996;-58
2024/04/18 04:22:32;;;;;;;20.30;13.70;;;;;;;;;;5385423;26;20010;-58
2024/04/18 04:25:18;;;;;;;21.20;13.30;;;;;;;;;;5385304;26;20070;-59
2024/04/18 04:27:43;;;;;;;19.83;13.57;;;;;;;;;;5385479;26;20004;-59
2024/04/18 04:30:09;;;;;;;13.30;9.63;;;;;;;;;;5385219;26;20008;-60
2024/04/18 04:32:34;;;;;;;14.02;10.23;;;;;;;;;;5385082;26;19996;-64
2024/04/18 04:35:00;;;;;;;16.40;9.88;;;;;;;;;;5379776;26;20007;-61
2024/04/18 04:37:25;;;;;;;20.20;13.43;;;;;;;;;;5385490;26;19992;-59
2024/04/18 04:39:50;;;;;;;19.02;13.27;;;;;;;;;;5385142;26;19992;-59
2024/04/18 04:42:18;;;;;;;22.58;13.43;;;;;;;;;;5385041;26;20091;-61
2024/04/18 04:44:44;;;;;;;19.58;14.05;;;;;;;;;;5384911;26;20004;-61
2024/04/18 04:47:27;;;;;;;18.83;12.90;;;;;;;;;;5384702;26;20029;-61
2024/04/18 04:49:52;;;;;;;24.00;14.68;;;;;;;;;;5384828;26;20398;-61
2024/04/18 04:52:34;;;;;;;19.95;13.52;;;;;;;;;;5326918;26;20401;-61
2024/04/18 04:55:00;;;;;;;19.33;13.68;;;;;;;;;;5350118;26;20044;-61
2024/04/18 04:57:25;;;;;;;19.08;13.23;;;;;;;;;;5350287;26;19993;-61
2024/04/18 05:00:11;;;;;;;21.20;13.60;;;;;;;;;;5349751;26;20007;-61
2024/04/18 05:02:54;;;;;;;21.52;14.20;;;;;;;;;;5349946;26;20063;-61
2024/04/18 05:05:19;;;;;;;20.55;14.05;;;;;;;;;;5349880;26;19993;-61
2024/04/18 05:08:01;;;;;;;20.77;13.43;;;;;;;;;;5349866;26;20001;-61
2024/04/18 05:10:40;;;;;;;20.88;14.35;;;;;;;;;;5349715;26;20076;-61
2024/04/18 05:13:06;;;;;;;20.42;14.27;;;;;;;;;;5349699;26;20070;-61
2024/04/18 05:15:34;;;;;;;22.58;15.27;;;;;;;;;;5319123;26;19997;-61
2024/04/18 05:17:59;;;;;;;20.45;14.30;;;;;;;;;;5349731;26;20000;-61
2024/04/18 05:20:25;;;;;;;22.38;15.00;;;;;;;;;;5349734;26;19993;-62
2024/04/18 05:22:50;;;;;;;20.83;14.70;;;;;;;;;;5349640;26;20008;-62
2024/04/18 05:25:16;;;;;;;27.13;16.35;;;;;;;;;;5348595;26;20012;-61
2024/04/18 05:27:53;;;;;;;26.80;16.85;;;;;;;;;;5349712;26;19993;-61
2024/04/18 05:33:17;;;;;;;20.55;12.30;;;;;;;;;;5349562;26;20081;-62
2024/04/18 05:35:42;;;;;;;24.77;16.30;;;;;;;;;;5318988;26;19997;-61
2024/04/18 05:38:08;;;;;;;23.65;15.95;;;;;;;;;;5346652;26;20004;-61
2024/04/18 05:40:33;;;;;;;26.15;16.25;;;;;;;;;;5348506;26;20005;-61
2024/04/18 05:42:58;;;;;;;27.70;17.15;;;;;;;;;;5346603;26;19993;-61
2024/04/18 05:45:44;;;;;;;26.63;16.20;;;;;;;;;;5347852;26;20047;-61
2024/04/18 05:48:10;;;;;;;27.30;17.63;;;;;;;;;;5349384;26;20009;-61
2024/04/18 05:50:36;;;;;;;27.77;17.27;;;;;;;;;;5349569;26;20033;-61
2024/04/18 05:53:01;;;;;;;28.58;17.67;;;;;;;;;;5380053;26;19996;-61
2024/04/18 05:55:47;;;;;;;33.83;19.02;;;;;;;;;;5380703;26;20074;-61
2024/04/18 05:58:12;;;;;;;32.08;19.45;;;;;;;;;;5380540;26;20435;-61
2024/04/18 06:00:53;;;;;;;30.77;18.33;;;;;;;;;;5380796;26;20011;-61
2024/04/18 06:03:19;;;;;;;29.13;17.92;;;;;;;;;;5380348;26;20397;-61
2024/04/18 06:05:46;;;;;;;25.65;17.33;;;;;;;;;;5380728;26;20011;-61
2024/04/18 06:08:11;;;;;;;29.40;17.38;;;;;;;;;;5382512;26;20003;-62
2024/04/18 06:10:37;;;;;;;26.25;16.38;;;;;;;;;;5383932;26;19996;-62
2024/04/18 06:13:16;;;;;;;25.45;16.13;;;;;;;;;;5384270;26;19996;-62
2024/04/18 06:15:43;;;;;;;24.65;15.85;;;;;;;;;;5383960;26;20397;-56
2024/04/18 06:18:09;;;;;;;28.42;16.33;;;;;;;;;;5383776;26;20434;-56
2024/04/18 06:20:44;;;;;;;25.15;15.63;;;;;;;;;;5396477;21;20015;-61
2024/04/18 06:23:10;;;;;;;26.50;17.02;;;;;;;;;;5397219;21;20005;-61
2024/04/18 06:25:41;;;;;;;23.35;15.52;;;;;;;;;;5399656;21;20331;-64
2024/04/18 06:28:09;;;;;;;22.52;14.98;;;;;;;;;;5409140;21;20341;-61
2024/04/18 06:30:34;;;;;;;22.98;14.43;;;;;;;;;;5392252;21;20000;-55
2024/04/18 06:32:59;;;;;;;22.90;14.45;;;;;;;;;;5383969;26;19992;-55
2024/04/18 06:35:25;;;;;;;21.10;14.38;;;;;;;;;;5383785;26;20003;-56
2024/04/18 06:37:51;;;;;;;20.48;14.30;;;;;;;;;;5383649;26;20000;-56
2024/04/18 06:40:19;;;;;;;21.02;14.43;;;;;;;;;;5383847;26;20007;-56
2024/04/18 06:42:44;;;;;;;17.48;12.88;;;;;;;;;;5353079;26;20358;-56
2024/04/18 06:45:10;;;;;;;20.70;13.90;;;;;;;;;;5383798;26;20023;-56
2024/04/18 06:47:35;;;;;;;20.33;13.63;;;;;;;;;;5383743;26;20435;-56
2024/04/18 06:50:06;;;;;;;20.65;13.88;;;;;;;;;;5383710;26;19996;-56
2024/04/18 06:52:32;;;;;;;19.13;13.65;;;;;;;;;;5383646;26;20028;-56
2024/04/18 06:54:58;;;;;;;17.20;12.77;;;;;;;;;;5383583;26;20319;-56
2024/04/18 06:57:42;;;;;;;19.48;12.98;;;;;;;;;;5383593;26;20161;-56
2024/04/18 07:00:10;;;;;;;20.38;13.52;;;;;;;;;;5383662;26;20443;-56
2024/04/18 07:02:36;;;;;;;16.80;13.13;;;;;;;;;;5383451;26;20070;-56
2024/04/18 07:05:23;;;;;;;16.45;12.07;;;;;;;;;;5384707;26;20007;-56
2024/04/18 07:07:51;;;;;;;16.50;12.95;;;;;;;;;;5383456;26;20327;-56
2024/04/18 07:10:32;;;;;;;17.70;12.55;;;;;;;;;;5383712;26;20028;-56
2024/04/18 07:13:17;;;;;;;16.20;12.80;;;;;;;;;;5382579;26;20028;-56
2024/04/18 07:15:53;;;;;;;18.50;12.70;;;;;;;;;;5383381;26;20015;-56
2024/04/18 07:18:37;;;;;;;20.20;13.30;;;;;;;;;;5384334;26;20073;-56
2024/04/18 07:21:02;;;;;;;17.40;12.60;;;;;;;;;;5352448;26;20007;-56
2024/04/18 07:23:34;;;;;;;11.48;9.90;;;;;;;;;;5383266;26;20000;-56
2024/04/18 07:26:01;;;;;;;14.05;9.82;;;;;;;;;;5383255;26;20319;-56
2024/04/18 07:28:27;;;;;;;16.42;11.20;;;;;;;;;;5383160;26;20074;-56
2024/04/18 07:30:52;;;;;;;13.13;10.00;;;;;;;;;;5382940;26;20042;-56
2024/04/18 07:33:17;;;;;;;10.50;8.70;;;;;;;;;;5383324;26;20011;-56
2024/04/18 07:35:52;;;;;;;11.43;10.23;;;;;;;;;;5383364;26;19996;-56
2024/04/18 07:38:18;;;;;;;11.50;8.32;;;;;;;;;;5383469;26;20474;-56
2024/04/18 07:40:44;;;;;;;11.45;8.45;;;;;;;;;;5383069;26;20380;-56
2024/04/18 07:43:10;;;;;;;9.57;7.88;;;;;;;;;;5382957;26;20000;-56
2024/04/18 07:45:35;;;;;;;10.80;7.47;;;;;;;;;;5351950;26;20066;-56
2024/04/18 07:48:01;;;;;;;9.48;7.88;;;;;;;;;;5381903;26;20003;-56
2024/04/18 07:50:26;;;;;;;9.45;7.88;;;;;;;;;;5382732;26;20011;-56
2024/04/18 07:52:52;;;;;;;6.65;5.95;;;;;;;;;;5382808;26;20002;-56
2024/04/18 07:55:17;;;;;;;7.68;6.60;;;;;;;;;;5382659;26;20000;-56
2024/04/18 07:57:43;;;;;;;11.48;7.25;;;;;;;;;;5382574;26;20006;-56
2024/04/18 08:00:09;;;;;;;8.52;6.65;;;;;;;;;;5382621;26;19996;-56
2024/04/18 08:02:38;;;;;;;9.50;7.00;;;;;;;;;;5383879;26;20008;-56
2024/04/18 08:05:03;;;;;;;7.35;5.55;;;;;;;;;;5382347;26;20074;-56
2024/04/18 08:07:28;;;;;;;8.35;6.40;;;;;;;;;;5382305;26;20377;-56
2024/04/18 08:09:54;;;;;;;8.23;6.60;;;;;;;;;;5382768;26;19996;-56
2024/04/18 08:12:19;;;;;;;6.95;6.10;;;;;;;;;;5382422;26;20073;-56
2024/04/18 08:14:45;;;;;;;8.52;6.28;;;;;;;;;;5351649;26;20042;-56
2024/04/18 08:17:10;;;;;;;7.00;5.97;;;;;;;;;;5382233;26;19997;-56
2024/04/18 08:19:37;;;;;;;7.97;6.95;;;;;;;;;;5382319;26;20014;-56
2024/04/18 08:22:02;;;;;;;9.30;6.95;;;;;;;;;;5382346;26;20041;-56
2024/04/18 08:24:27;;;;;;;9.35;6.32;;;;;;;;;;5351441;26;20008;-56
2024/04/18 08:27:04;;;;;;;6.65;6.00;;;;;;;;;;5381925;26;20480;-56
2024/04/18 08:29:29;;;;;;;7.78;5.93;;;;;;;;;;5382471;26;19993;-56
2024/04/18 08:31:55;;;;;;;7.82;6.95;;;;;;;;;;5381838;26;20465;-56
2024/04/18 08:34:20;;;;;;;8.43;6.95;;;;;;;;;;5382424;26;20000;-56
2024/04/18 08:36:46;;;;;;;9.70;6.97;;;;;;;;;;5382022;26;20012;-56
2024/04/18 08:39:11;;;;;;;7.82;5.72;;;;;;;;;;5351224;26;20000;-56
2024/04/18 08:41:36;;;;;;;8.70;5.97;;;;;;;;;;5382217;26;20323;-56
2024/04/18 08:44:02;;;;;;;6.85;5.57;;;;;;;;;;5382194;26;20038;-56
2024/04/18 08:46:29;;;;;;;7.20;5.47;;;;;;;;;;5382058;26;20324;-56
2024/04/18 08:48:58;;;;;;;7.20;5.65;;;;;;;;;;5382132;26;20012;-56
2024/04/18 08:51:23;;;;;;;7.85;6.10;;;;;;;;;;5382021;26;19996;-56
2024/04/18 08:53:49;;;;;;;8.02;6.18;;;;;;;;;;5382099;26;19993;-56
2024/04/18 08:56:14;;;;;;;7.97;6.30;;;;;;;;;;5381967;26;20366;-56
2024/04/18 08:58:40;;;;;;;5.35;4.63;;;;;;;;;;5381931;26;19996;-56
2024/04/18 09:01:06;;;;;;;5.20;4.32;;;;;;;;;;5384162;26;20000;-56
2024/04/18 09:03:31;;;;;;;4.50;4.05;;;;;;;;;;5385582;26;20007;-56
2024/04/18 09:05:56;;;;;;;4.35;3.95;;;;;;;;;;5385507;26;20423;-56
2024/04/18 09:08:22;;;;;;;6.07;5.40;;;;;;;;;;5385550;26;20004;-56
2024/04/18 09:10:48;;;;;;;4.70;4.28;;;;;;;;;;5385387;26;20007;-56
2024/04/18 09:13:13;;;;;;;3.60;3.17;;;;;;;;;;5385456;26;19996;-56
2024/04/18 09:15:39;;;;;;;2.97;2.78;;;;;;;;;;5385099;26;20000;-56
2024/04/18 09:18:06;;;;;;;4.45;3.65;;;;;;;;;;5385303;26;20413;-56
2024/04/18 09:20:33;;;;;;;4.90;3.42;;;;;;;;;;5385069;26;20184;-56
2024/04/18 09:22:58;;;;;;;3.67;3.38;;;;;;;;;;5384917;26;20027;-56
2024/04/18 09:25:24;;;;;;;3.92;3.50;;;;;;;;;;5384958;26;20004;-56
2024/04/18 09:27:49;;;;;;;3.83;3.28;;;;;;;;;;5384976;26;20000;-56
2024/04/18 09:30:15;;;;;;;3.92;3.35;;;;;;;;;;5384867;26;20000;-56
2024/04/18 09:32:43;;;;;;;4.25;3.80;;;;;;;;;;5384650;26;19996;-56
2024/04/18 09:35:09;;;;;;;3.75;3.38;;;;;;;;;;5384858;26;20073;-56
2024/04/18 09:37:41;;;;;;;3.70;3.40;;;;;;;;;;5354010;26;20423;-56
2024/04/18 09:40:08;;;;;;;3.42;3.13;;;;;;;;;;5384744;26;20073;-56
2024/04/18 09:42:36;;;;;;;3.03;2.70;;;;;;;;;;5353734;26;19997;-56
2024/04/18 09:45:03;;;;;;;8.63;6.93;;;;;;;;;;5353722;26;20032;-56
2024/04/18 09:47:30;;;;;;;6.97;6.28;;;;;;;;;;5384643;26;20004;-56
2024/04/18 09:49:55;;;;;;;7.50;5.78;;;;;;;;;;5384310;26;19996;-56
2024/04/18 09:52:22;;;;;;;5.57;4.45;;;;;;;;;;5384030;26;20457;-56
2024/04/18 09:54:48;;;;;;;4.55;4.07;;;;;;;;;;5353744;26;19996;-56
2024/04/18 09:57:14;;;;;;;5.82;4.93;;;;;;;;;;5384224;26;19996;-56
2024/04/18 09:59:40;;;;;;;3.72;3.42;;;;;;;;;;5384486;26;20011;-56
2024/04/18 10:02:11;;;;;;;3.50;3.20;;;;;;;;;;5384381;26;20046;-56
2024/04/18 10:04:36;;;;;;;3.40;3.00;;;;;;;;;;5384325;26;20007;-56
2024/04/18 10:07:02;;;;;;;4.97;2.75;;;;;;;;;;5384346;26;20000;-56
2024/04/18 10:09:28;;;;;;;2.72;2.53;;;;;;;;;;5324732;26;20069;-56
2024/04/18 10:11:53;;;;;;;3.50;2.80;;;;;;;;;;5383581;26;20078;-56
2024/04/18 10:14:19;;;;;;;3.00;2.70;;;;;;;;;;5384324;26;20011;-56
2024/04/18 10:16:45;;;;;;;3.95;2.45;;;;;;;;;;5384518;26;20004;-56
2024/04/18 10:19:13;;;;;;;3.10;2.80;;;;;;;;;;5353006;26;20347;-56
2024/04/18 10:21:38;;;;;;;3.13;2.83;;;;;;;;;;5384192;26;19996;-56
2024/04/18 10:24:05;;;;;;;3.35;2.40;;;;;;;;;;5384079;26;20007;-56
2024/04/18 10:26:31;;;;;;;2.75;2.55;;;;;;;;;;5384088;26;20008;-56
2024/04/18 10:28:56;;;;;;;5.20;2.45;;;;;;;;;;5384061;26;20043;-56
2024/04/18 10:31:26;;;;;;;3.80;3.13;;;;;;;;;;5383962;26;20062;-56
2024/04/18 10:33:52;;;;;;;4.90;3.47;;;;;;;;;;5384096;26;20000;-56
2024/04/18 10:36:18;;;;;;;4.13;3.72;;;;;;;;;;5384346;26;20011;-56
2024/04/18 10:38:44;;;;;;;5.40;3.33;;;;;;;;;;5353471;26;20000;-56
2024/04/18 10:41:11;;;;;;;4.85;4.15;;;;;;;;;;5353302;26;19992;-56
2024/04/18 10:43:37;;;;;;;3.40;3.10;;;;;;;;;;5384208;26;20007;-56
2024/04/18 10:46:06;;;;;;;2.67;2.47;;;;;;;;;;5384155;26;20024;-56
2024/04/18 10:48:32;;;;;;;2.90;2.70;;;;;;;;;;5384127;26;20000;-56
2024/04/18 10:50:59;;;;;;;2.85;2.40;;;;;;;;;;5384006;26;20011;-56
2024/04/18 10:53:25;;;;;;;4.22;2.92;;;;;;;;;;5383668;26;20004;-56
2024/04/18 10:55:51;;;;;;;2.67;2.47;;;;;;;;;;5384098;26;19996;-56
2024/04/18 10:58:17;;;;;;;2.75;2.28;;;;;;;;;;5385352;26;20007;-56
2024/04/18 11:00:45;;;;;;;3.10;2.78;;;;;;;;;;5383949;26;19996;-56
2024/04/18 11:03:11;;;;;;;2.90;2.58;;;;;;;;;;5383956;26;20039;-56
2024/04/18 11:05:37;;;;;;;2.85;2.65;;;;;;;;;;5383918;26;20000;-56
2024/04/18 11:08:18;;;;;;;2.95;2.75;;;;;;;;;;5383895;26;20028;-56
2024/04/18 11:10:43;;;;;;;3.17;2.88;;;;;;;;;;5383776;26;20314;-56
2024/04/18 11:13:10;;;;;;;3.55;2.92;;;;;;;;;;5383843;26;19993;-56
2024/04/18 11:15:36;;;;;;;3.25;3.03;;;;;;;;;;5383787;26;20005;-56
2024/04/18 11:18:02;;;;;;;4.57;3.00;;;;;;;;;;5383741;26;20500;-56
2024/04/18 11:20:28;;;;;;;4.15;2.97;;;;;;;;;;5383677;26;20016;-56
2024/04/18 11:22:54;;;;;;;3.85;3.45;;;;;;;;;;5382260;26;20073;-56
2024/04/18 11:25:20;;;;;;;4.10;3.80;;;;;;;;;;5383541;26;20000;-56
2024/04/18 11:28:03;;;;;;;4.00;3.50;;;;;;;;;;5383693;26;20000;-56
2024/04/18 11:30:30;;;;;;;3.78;2.75;;;;;;;;;;5383236;26;20008;-56
2024/04/18 11:32:55;;;;;;;2.83;2.22;;;;;;;;;;5383159;26;20438;-56
2024/04/18 11:35:24;;;;;;;2.72;2.53;;;;;;;;;;5351758;26;20015;-56
2024/04/18 11:37:49;;;;;;;5.07;3.50;;;;;;;;;;5383110;26;20008;-56
2024/04/18 11:40:15;;;;;;;3.22;2.72;;;;;;;;;;5383072;26;20065;-56
2024/04/18 11:42:44;;;;;;;4.55;2.90;;;;;;;;;;5351895;26;20077;-56
2024/04/18 11:45:09;;;;;;;2.13;2.03;;;;;;;;;;5352042;26;20346;-56
2024/04/18 11:47:36;;;;;;;2.33;2.10;;;;;;;;;;5382840;26;19996;-56
2024/04/18 11:50:02;;;;;;;2.20;1.80;;;;;;;;;;5382964;26;20008;-56
2024/04/18 11:52:28;;;;;;;3.15;2.28;;;;;;;;;;5382504;26;20032;-56
2024/04/18 11:54:55;;;;;;;2.78;2.58;;;;;;;;;;5382797;26;20457;-56
2024/04/18 11:57:35;;;;;;;2.30;2.10;;;;;;;;;;5355137;26;20366;-56
2024/04/18 12:00:00;;;;;;;4.47;2.80;;;;;;;;;;5382683;26;20000;-56
2024/04/18 12:02:29;;;;;;;2.60;2.22;;;;;;;;;;5382737;26;20065;-56
2024/04/18 12:04:54;;;;;;;4.28;2.60;;;;;;;;;;5382629;26;20004;-56
2024/04/18 12:07:19;;;;;;;3.53;2.50;;;;;;;;;;5351521;26;20005;-56
2024/04/18 12:09:48;;;;;;;2.10;2.00;;;;;;;;;;5382583;26;19992;-56
2024/04/18 12:12:13;;;;;;;2.40;2.20;;;;;;;;;;5382132;26;20019;-56
2024/04/18 12:14:46;;;;;;;2.25;1.77;;;;;;;;;;5382412;26;20011;-55
2024/04/18 12:17:24;;;;;;;2.20;2.00;;;;;;;;;;5382776;26;20016;-56
2024/04/18 12:20:10;;;;;;;2.38;2.17;;;;;;;;;;5381888;26;20000;-55
2024/04/18 12:22:35;;;;;;;2.97;2.45;;;;;;;;;;5382322;26;20423;-55
2024/04/18 12:25:16;;;;;;;2.35;2.08;;;;;;;;;;5382524;26;20070;-55
2024/04/18 12:27:41;;;;;;;4.72;2.30;;;;;;;;;;5382515;26;20015;-55
2024/04/18 12:30:26;;;;;;;2.35;2.15;;;;;;;;;;5355986;26;20004;-56
2024/04/18 12:33:12;;;;;;;2.15;1.80;;;;;;;;;;5381834;26;20003;-56
2024/04/18 12:35:38;;;;;;;2.75;1.80;;;;;;;;;;5384086;26;20004;-56
2024/04/18 12:38:03;;;;;;;2.10;2.00;;;;;;;;;;5352434;26;20073;-56
2024/04/18 12:40:29;;;;;;;2.28;2.08;;;;;;;;;;5383975;26;20008;-56
2024/04/18 12:43:09;;;;;;;2.15;1.95;;;;;;;;;;5385066;26;20050;-55
2024/04/18 12:45:51;;;;;;;2.22;2.00;;;;;;;;;;5328992;26;20438;-55
2024/04/18 12:48:16;;;;;;;1.95;1.38;;;;;;;;;;5353834;26;20072;-55
2024/04/18 12:50:42;;;;;;;2.08;1.60;;;;;;;;;;5384927;26;20000;-55
2024/04/18 12:53:07;;;;;;;1.98;1.80;;;;;;;;;;5384970;26;20003;-55
2024/04/18 12:55:35;;;;;;;1.70;1.60;;;;;;;;;;5384219;26;20417;-54
2024/04/18 12:58:01;;;;;;;1.77;1.67;;;;;;;;;;5384716;26;20457;-55
2024/04/18 13:00:35;;;;;;;2.60;2.40;;;;;;;;;;5384861;26;20000;-54
2024/04/18 13:03:00;;;;;;;5.03;3.75;;;;;;;;;;5384510;26;20466;-55
2024/04/18 13:05:34;;;;;;;7.50;4.13;;;;;;;;;;5384453;26;20004;-54
2024/04/18 13:08:03;;;;;;;4.10;2.67;;;;;;;;;;5384469;26;20000;-54
2024/04/18 13:10:48;;;;;;;5.50;3.33;;;;;;;;;;5383421;26;20016;-54
2024/04/18 13:13:23;;;;;;;4.70;3.17;;;;;;;;;;5384272;26;20000;-55
2024/04/18 13:16:27;;;;;;;5.05;3.90;;;;;;;;;;5378013;26;20353;-55
2024/04/18 13:19:07;;;;;;;2.88;2.67;;;;;;;;;;5381947;26;20008;-55
2024/04/18 13:21:35;;;;;;;2.35;2.10;;;;;;;;;;5384173;26;20469;-55
2024/04/18 13:24:00;;;;;;;1.98;1.80;;;;;;;;;;5384605;26;20008;-55
2024/04/18 13:26:27;;;;;;;2.60;2.35;;;;;;;;;;5383759;26;20005;-55
2024/04/18 13:29:12;;;;;;;2.03;1.85;;;;;;;;;;5380577;26;20031;-55
2024/04/18 13:31:43;;;;;;;2.75;2.05;;;;;;;;;;5381583;26;20019;-55
2024/04/18 13:34:20;;;;;;;2.72;2.20;;;;;;;;;;5383620;26;20004;-55
2024/04/18 13:36:46;;;;;;;3.95;2.33;;;;;;;;;;5383732;26;20008;-55
2024/04/18 13:39:11;;;;;;;2.33;2.13;;;;;;;;;;5383838;26;19992;-55
2024/04/18 13:41:42;;;;;;;2.42;2.15;;;;;;;;;;5383553;26;20004;-55
2024/04/18 13:44:13;;;;;;;1.70;1.60;;;;;;;;;;5383664;26;20004;-55
2024/04/18 13:46:42;;;;;;;4.78;2.95;;;;;;;;;;5382790;26;20018;-55
2024/04/18 13:49:07;;;;;;;2.63;2.00;;;;;;;;;;5383686;26;20016;-55
2024/04/18 13:51:49;;;;;;;3.05;1.65;;;;;;;;;;5384067;26;20004;-55
2024/04/18 13:54:30;;;;;;;3.08;1.52;;;;;;;;;;5383641;26;20015;-61
2024/04/18 13:56:56;;;;;;;1.85;1.40;;;;;;;;;;5352237;26;20012;-61
2024/04/18 13:59:38;;;;;;;1.50;1.40;;;;;;;;;;5383484;26;20016;-61
2024/04/18 14:02:04;;;;;;;2.17;1.40;;;;;;;;;;5383420;26;20004;-62
2024/04/18 14:04:38;;;;;;;1.50;1.10;;;;;;;;;;5355302;26;20008;-55
2024/04/18 14:07:19;;;;;;;;;;;;;;;;;;5384183;26;20010;-55
2024/04/18 14:09:45;;;;;;;1.30;1.20;;;;;;;;;;5383690;26;19925;-55
2024/04/18 14:12:10;;;;;;;1.50;1.15;;;;;;;;;;5383864;26;20078;-61
2024/04/18 14:14:36;;;;;;;1.38;1.27;;;;;;;;;;5382863;26;20099;-62
2024/04/18 14:20:02;;;;;;;2.05;1.63;;;;;;;;;;5383684;26;20446;-57
2024/04/18 14:22:27;;;;;;;1.52;1.42;;;;;;;;;;5383481;26;20048;-55
2024/04/18 14:24:53;;;;;;;2.08;1.60;;;;;;;;;;5383471;26;20019;-61
2024/04/18 14:27:31;;;;;;;1.60;1.35;;;;;;;;;;5383569;26;20346;-61
2024/04/18 14:29:59;;;;;;;1.75;1.55;;;;;;;;;;5383684;26;20019;-61
2024/04/18 14:32:34;;;;;;;2.00;1.67;;;;;;;;;;5354958;26;20019;-61
2024/04/18 14:35:03;;;;;;;1.90;1.70;;;;;;;;;;5383308;26;20008;-61
2024/04/18 14:37:28;;;;;;;2.25;1.60;;;;;;;;;;5382788;26;20102;-60
2024/04/18 14:39:54;;;;;;;1.95;1.60;;;;;;;;;;5383258;26;20085;-60
2024/04/18 14:42:19;;;;;;;1.90;1.80;;;;;;;;;;5383809;26;20445;-62
2024/04/18 14:44:45;;;;;;;1.95;1.38;;;;;;;;;;5383831;26;20316;-61
2024/04/18 14:47:15;;;;;;;8.95;4.30;;;;;;;;;;5383379;26;20019;-60
2024/04/18 14:49:56;;;;;;;1.88;1.33;;;;;;;;;;5383935;26;20040;-60
2024/04/18 14:52:34;;;;;;;1.88;1.65;;;;;;;;;;5383164;26;20008;-60